Time;durP1;ratioP1;P1;durP2;ratioP2;P2;SDS_P1;SDS_P2;PMS_P1;PMS_P2;Temp;Humidity;BMP_temperature;BMP_pressure;BME280_temperature;BME280_humidity;BME280_pressure;Samples;Min_cycle;Max_cycle;Signal;HPM_P1;HPM_P2
2023/09/07 00:00:45;;;;;;;12.15;10.95;;;19.70;99.90;;;;;;5039269;28;37899;-84
2023/09/07 00:03:12;;;;;;;12.90;11.45;;;19.70;99.90;;;;;;5036974;28;37184;-84
2023/09/07 00:05:38;;;;;;;13.55;10.98;;;19.60;99.90;;;;;;5044283;28;36955;-84
2023/09/07 00:08:05;;;;;;;13.02;11.45;;;19.60;99.90;;;;;;5039859;28;38643;-84
2023/09/07 00:10:35;;;;;;;13.38;11.20;;;19.60;99.90;;;;;;5041276;28;39088;-84
2023/09/07 00:13:04;;;;;;;14.07;12.15;;;19.60;99.90;;;;;;5039072;28;38256;-84
2023/09/07 00:15:35;;;;;;;15.15;12.75;;;19.60;99.90;;;;;;5034802;28;47492;-85
2023/09/07 00:18:02;;;;;;;15.93;12.45;;;19.60;99.90;;;;;;5053629;28;37517;-84
2023/09/07 00:20:28;;;;;;;12.02;10.73;;;19.60;99.90;;;;;;5041356;28;37759;-85
2023/09/07 00:22:54;;;;;;;15.10;12.20;;;19.60;99.90;;;;;;5046056;28;37242;-85
2023/09/07 00:25:20;;;;;;;13.48;12.05;;;19.60;99.90;;;;;;5042700;28;36304;-84
2023/09/07 00:27:46;;;;;;;14.88;12.10;;;19.60;99.90;;;;;;5048837;28;37965;-85
2023/09/07 00:30:13;;;;;;;13.05;10.63;;;19.70;99.90;;;;;;5048620;28;38309;-84
2023/09/07 00:32:40;;;;;;;12.40;11.15;;;19.70;99.90;;;;;;5041465;28;37512;-85
2023/09/07 00:35:06;;;;;;;12.10;10.75;;;19.70;99.90;;;;;;5040288;28;34968;-84
2023/09/07 00:37:33;;;;;;;14.57;11.50;;;19.60;99.90;;;;;;5041577;28;37656;-84
2023/09/07 00:39:59;;;;;;;15.63;11.85;;;19.50;99.90;;;;;;5039098;28;37729;-85
2023/09/07 00:42:25;;;;;;;14.73;12.00;;;19.50;99.90;;;;;;5039238;28;39280;-85
2023/09/07 00:44:51;;;;;;;13.05;11.20;;;19.50;99.90;;;;;;5043965;28;36329;-85
2023/09/07 00:47:18;;;;;;;13.05;10.75;;;19.40;99.90;;;;;;5043472;28;39096;-85
2023/09/07 00:49:45;;;;;;;10.90;9.80;;;19.40;99.90;;;;;;5047999;28;37379;-83
2023/09/07 00:52:11;;;;;;;12.68;10.02;;;19.30;99.90;;;;;;5049773;28;37395;-84
2023/09/07 00:54:41;;;;;;;12.57;10.68;;;19.30;99.90;;;;;;5046790;28;36278;-84
2023/09/07 00:57:08;;;;;;;15.15;10.68;;;19.20;99.90;;;;;;5046933;28;40348;-85
2023/09/07 00:59:34;;;;;;;14.18;10.77;;;19.20;99.90;;;;;;5041308;28;37166;-83
2023/09/07 01:04:30;;;;;;;11.75;9.90;;;19.10;99.90;;;;;;5015073;28;20038;-85
2023/09/07 01:07:02;;;;;;;11.95;10.75;;;19.10;99.90;;;;;;5024451;28;38085;-85
2023/09/07 01:09:30;;;;;;;;;;;19.00;99.90;;;;;;5027608;28;47102;-85
2023/09/07 01:11:56;;;;;;;16.00;10.73;;;19.00;99.90;;;;;;5027730;28;38592;-86
2023/09/07 01:14:23;;;;;;;13.13;10.60;;;19.00;99.90;;;;;;5027413;28;36556;-87
2023/09/07 01:16:50;;;;;;;11.68;9.80;;;19.00;99.90;;;;;;5029075;28;38088;-86
2023/09/07 01:19:22;;;;;;;12.73;10.02;;;18.90;99.90;;;;;;5027857;28;37349;-87
2023/09/07 01:21:49;;;;;;;11.48;10.25;;;18.90;99.90;;;;;;5029997;28;37162;-86
2023/09/07 01:24:16;;;;;;;13.40;9.88;;;18.90;99.90;;;;;;5030383;28;38518;-86
2023/09/07 01:26:42;;;;;;;11.77;10.55;;;18.80;99.90;;;;;;5025176;28;37784;-85
2023/09/07 01:29:09;;;;;;;13.20;11.57;;;18.80;99.90;;;;;;5026540;28;37702;-85
2023/09/07 01:31:38;;;;;;;11.50;10.18;;;18.80;99.90;;;;;;5032448;28;37545;-85
2023/09/07 01:34:06;;;;;;;10.70;9.40;;;18.80;99.90;;;;;;5028330;28;36982;-87
2023/09/07 01:36:32;;;;;;;11.38;9.93;;;18.70;99.90;;;;;;5022137;28;38934;-85
2023/09/07 01:38:58;;;;;;;11.13;9.93;;;18.70;99.90;;;;;;5026493;28;39606;-85
2023/09/07 01:41:24;;;;;;;11.10;10.00;;;18.70;99.90;;;;;;5007091;28;38258;-86
2023/09/07 01:43:51;;;;;;;11.68;10.45;;;18.60;99.90;;;;;;5015941;28;36059;-85
2023/09/07 01:46:29;;;;;;;11.48;9.73;;;18.60;99.90;;;;;;5008898;28;37828;-87
2023/09/07 01:48:55;;;;;;;9.93;8.93;;;18.50;99.90;;;;;;5006834;28;37718;-87
2023/09/07 01:51:21;;;;;;;11.55;10.35;;;18.50;99.90;;;;;;5004068;28;37954;-86
2023/09/07 01:53:48;;;;;;;12.73;10.38;;;18.40;99.90;;;;;;5008600;28;38604;-86
2023/09/07 01:56:17;;;;;;;12.40;10.85;;;18.40;99.90;;;;;;5006040;28;37880;-86
2023/09/07 01:58:43;;;;;;;12.23;10.48;;;18.40;99.90;;;;;;5013652;28;38638;-87
2023/09/07 02:01:29;;;;;;;11.43;10.27;;;18.40;99.90;;;;;;5017304;28;38138;-87
2023/09/07 02:04:01;;;;;;;13.85;10.13;;;18.30;99.90;;;;;;5021014;28;36772;-87
2023/09/07 02:06:27;;;;;;;12.95;11.65;;;18.30;99.90;;;;;;5012958;28;38735;-86
2023/09/07 02:08:53;;;;;;;12.30;10.85;;;18.30;99.90;;;;;;5027043;28;38362;-88
2023/09/07 02:11:19;;;;;;;11.85;10.07;;;18.30;99.90;;;;;;5028074;28;37203;-86
2023/09/07 02:13:47;;;;;;;13.68;10.68;;;18.30;99.90;;;;;;5007068;28;37585;-86
2023/09/07 02:16:15;;;;;;;13.55;11.77;;;18.30;99.90;;;;;;5005351;28;37779;-87
2023/09/07 02:18:46;;;;;;;14.02;11.65;;;18.30;99.90;;;;;;5004889;28;37491;-87
2023/09/07 02:21:13;;;;;;;13.13;11.73;;;18.20;99.90;;;;;;5006172;28;37875;-87
2023/09/07 02:23:39;;;;;;;13.07;11.57;;;18.20;99.90;;;;;;5006167;28;38199;-87
2023/09/07 02:26:05;;;;;;;11.88;10.68;;;18.20;99.90;;;;;;5006355;28;40198;-86
2023/09/07 02:28:31;;;;;;;15.45;12.57;;;18.20;99.90;;;;;;5008735;28;38463;-87
2023/09/07 02:31:05;;;;;;;14.52;12.60;;;18.20;99.90;;;;;;5015065;28;37505;-86
2023/09/07 02:33:31;;;;;;;14.45;11.68;;;18.20;99.90;;;;;;5012348;28;47418;-85
2023/09/07 02:35:58;;;;;;;16.52;12.68;;;18.20;99.90;;;;;;5010849;28;37940;-87
2023/09/07 02:38:24;;;;;;;15.32;13.68;;;18.20;99.90;;;;;;5003148;28;37245;-86
2023/09/07 02:40:52;;;;;;;14.73;12.73;;;18.20;99.90;;;;;;5004660;28;38406;-86
2023/09/07 02:43:18;;;;;;;12.93;11.32;;;18.10;99.90;;;;;;5004530;28;36459;-86
2023/09/07 02:45:50;;;;;;;14.65;12.02;;;18.10;99.90;;;;;;5005470;28;39259;-85
2023/09/07 02:48:16;;;;;;;14.70;13.07;;;18.10;99.90;;;;;;5003466;28;37598;-85
2023/09/07 02:50:45;;;;;;;15.40;13.82;;;18.10;99.90;;;;;;5005180;28;36944;-87
2023/09/07 02:53:11;;;;;;;17.67;14.45;;;18.00;99.90;;;;;;5009387;28;36668;-87
2023/09/07 02:55:39;;;;;;;16.98;14.52;;;18.00;99.90;;;;;;5006906;28;37924;-87
2023/09/07 02:58:05;;;;;;;20.25;15.95;;;17.90;99.90;;;;;;5005007;28;38538;-86
2023/09/07 03:00:32;;;;;;;18.88;14.90;;;17.90;99.90;;;;;;5003401;28;37687;-87
2023/09/07 03:02:58;;;;;;;16.85;14.85;;;17.90;99.90;;;;;;5000905;28;36223;-87
2023/09/07 03:05:27;;;;;;;17.50;15.70;;;17.90;99.90;;;;;;5002648;28;39714;-88
2023/09/07 03:07:54;;;;;;;17.05;14.68;;;17.90;99.90;;;;;;5006042;28;37570;-87
2023/09/07 03:10:20;;;;;;;17.45;15.65;;;17.90;99.90;;;;;;5002465;28;37257;-88
2023/09/07 03:12:46;;;;;;;21.40;17.75;;;17.90;99.90;;;;;;5006094;28;36524;-88
2023/09/07 03:15:12;;;;;;;18.17;16.38;;;17.90;99.90;;;;;;5009775;28;37641;-87
2023/09/07 03:17:38;;;;;;;18.80;16.88;;;17.90;99.90;;;;;;5010021;28;37382;-88
2023/09/07 03:20:13;;;;;;;19.15;17.20;;;17.90;99.90;;;;;;4991135;28;37187;-85
2023/09/07 03:22:44;;;;;;;19.92;17.25;;;17.90;99.90;;;;;;5003629;28;36359;-88
2023/09/07 03:25:11;;;;;;;21.33;19.00;;;17.90;99.90;;;;;;5002988;28;37993;-88
2023/09/07 03:27:40;;;;;;;19.75;17.35;;;17.90;99.90;;;;;;5006102;28;39053;-87
2023/09/07 03:30:07;;;;;;;21.85;18.38;;;18.00;99.90;;;;;;5002434;28;37062;-87
2023/09/07 03:32:34;;;;;;;21.38;19.08;;;18.00;99.90;;;;;;5026726;28;47066;-87
2023/09/07 03:35:03;;;;;;;21.00;18.80;;;17.90;99.90;;;;;;5026873;28;39261;-86
2023/09/07 03:37:29;;;;;;;23.30;18.60;;;17.90;99.90;;;;;;5029901;28;36953;-86
2023/09/07 03:39:56;;;;;;;21.13;18.00;;;17.90;99.90;;;;;;5025100;28;36932;-86
2023/09/07 03:42:23;;;;;;;20.13;17.33;;;17.90;99.90;;;;;;5026000;28;37467;-88
2023/09/07 03:44:50;;;;;;;23.30;19.77;;;17.80;99.90;;;;;;5024210;28;37692;-88
2023/09/07 03:47:18;;;;;;;21.30;19.02;;;17.80;99.90;;;;;;5021009;28;37522;-87
2023/09/07 03:49:44;;;;;;;22.15;19.50;;;17.80;99.90;;;;;;5022709;28;37235;-88
2023/09/07 03:52:11;;;;;;;20.25;18.17;;;17.80;99.90;;;;;;5023068;28;36508;-87
2023/09/07 03:54:37;;;;;;;19.92;17.83;;;17.90;99.90;;;;;;5023213;28;38711;-88
2023/09/07 03:57:06;;;;;;;23.35;20.85;;;17.90;99.90;;;;;;5024310;28;38799;-87
2023/09/07 03:59:33;;;;;;;22.85;19.10;;;17.90;99.90;;;;;;5023753;28;37987;-87
2023/09/07 04:01:59;;;;;;;20.67;18.55;;;17.80;99.90;;;;;;5023867;28;36697;-87
2023/09/07 04:04:25;;;;;;;22.33;19.70;;;17.80;99.90;;;;;;5021394;28;37745;-87
2023/09/07 04:06:51;;;;;;;22.33;19.25;;;17.70;99.90;;;;;;5022220;28;37842;-88
2023/09/07 04:09:17;;;;;;;21.25;19.05;;;17.70;99.90;;;;;;5010580;28;38142;-87
2023/09/07 04:11:46;;;;;;;20.60;18.50;;;17.70;99.90;;;;;;5020169;28;36297;-87
2023/09/07 04:14:12;;;;;;;25.98;19.38;;;17.70;99.90;;;;;;5021025;28;38583;-88
2023/09/07 04:16:38;;;;;;;21.98;19.65;;;17.70;99.90;;;;;;5021352;28;37378;-88
2023/09/07 04:19:04;;;;;;;23.83;21.27;;;17.60;99.90;;;;;;5021824;28;37927;-87
2023/09/07 04:21:30;;;;;;;23.60;20.67;;;17.60;99.90;;;;;;5027403;28;37711;-88
2023/09/07 04:23:57;;;;;;;21.40;18.38;;;17.60;99.90;;;;;;5039349;28;37616;-86
2023/09/07 04:26:24;;;;;;;24.42;20.65;;;17.50;99.90;;;;;;5021765;28;38547;-87
2023/09/07 04:28:50;;;;;;;21.60;19.30;;;17.50;99.90;;;;;;5021835;28;37104;-86
2023/09/07 04:31:29;;;;;;;;;;;;;;;;;;;;;
2023/09/07 04:33:55;;;;;;;24.52;21.08;;;17.40;99.90;;;;;;5035481;28;39665;-87
2023/09/07 04:36:21;;;;;;;23.83;20.08;;;17.40;99.90;;;;;;5021553;28;38628;-87
2023/09/07 04:38:48;;;;;;;21.88;19.50;;;17.40;99.90;;;;;;5022209;28;37190;-88
2023/09/07 04:41:14;;;;;;;21.45;19.25;;;17.30;99.90;;;;;;5022293;28;36885;-87
2023/09/07 04:43:44;;;;;;;21.55;19.20;;;17.30;99.90;;;;;;5020733;28;40418;-88
2023/09/07 04:46:12;;;;;;;21.98;18.92;;;17.30;99.90;;;;;;5018319;28;38657;-87
2023/09/07 04:48:40;;;;;;;23.58;19.35;;;17.30;99.90;;;;;;5022068;28;34921;-88
2023/09/07 04:51:08;;;;;;;23.13;20.70;;;17.30;99.90;;;;;;5021441;28;37485;-88
2023/09/07 04:54:03;;;;;;;;;;;;;;;;;;;;;
2023/09/07 04:56:30;;;;;;;20.73;18.20;;;17.30;99.90;;;;;;5017891;28;47504;-86
2023/09/07 04:58:56;;;;;;;21.23;19.02;;;17.20;99.90;;;;;;5020895;28;38611;-85
2023/09/07 05:01:22;;;;;;;22.50;20.10;;;17.20;99.90;;;;;;5018702;28;37751;-86
2023/09/07 05:03:50;;;;;;;22.80;20.38;;;17.20;99.90;;;;;;5019202;28;37736;-86
2023/09/07 05:06:16;;;;;;;22.35;19.98;;;17.20;99.90;;;;;;5019264;28;37494;-85
2023/09/07 05:08:43;;;;;;;22.48;20.23;;;17.20;99.90;;;;;;5020154;28;37941;-88
2023/09/07 05:11:09;;;;;;;23.08;20.65;;;17.10;99.90;;;;;;5021577;28;37547;-91
2023/09/07 05:13:35;;;;;;;26.88;20.42;;;17.10;99.90;;;;;;5025942;28;39146;-86
2023/09/07 05:16:01;;;;;;;24.17;19.95;;;17.10;99.90;;;;;;5022190;28;37162;-85
2023/09/07 05:18:27;;;;;;;23.10;20.45;;;17.10;99.90;;;;;;5016070;28;47371;-86
2023/09/07 05:20:53;;;;;;;23.13;20.63;;;17.10;99.90;;;;;;5015000;28;36460;-87
2023/09/07 05:23:21;;;;;;;24.75;22.25;;;17.10;99.90;;;;;;5013632;28;37982;-87
2023/09/07 05:25:53;;;;;;;22.95;20.50;;;17.10;99.90;;;;;;5014078;28;38426;-88
2023/09/07 05:28:20;;;;;;;24.55;21.95;;;17.00;99.90;;;;;;5020399;28;38344;-89
2023/09/07 05:30:46;;;;;;;23.40;20.90;;;17.10;99.90;;;;;;5027195;28;39723;-89
2023/09/07 05:33:15;;;;;;;25.25;22.00;;;17.00;99.90;;;;;;5032458;28;37772;-90
2023/09/07 05:35:42;;;;;;;24.92;22.35;;;17.00;99.90;;;;;;5030474;28;39116;-88
2023/09/07 05:38:09;;;;;;;23.05;20.58;;;17.10;99.90;;;;;;5029395;28;37101;-90
2023/09/07 05:40:37;;;;;;;24.63;21.63;;;17.10;99.90;;;;;;5022696;28;36184;-86
2023/09/07 05:43:03;;;;;;;23.38;20.85;;;17.10;99.90;;;;;;5030424;28;38885;-86
2023/09/07 05:45:34;;;;;;;26.85;21.98;;;17.10;99.90;;;;;;5024547;28;38847;-86
2023/09/07 05:48:00;;;;;;;25.90;20.92;;;17.10;99.90;;;;;;5026357;28;36894;-86
2023/09/07 05:50:26;;;;;;;24.08;21.58;;;17.10;99.90;;;;;;5024437;28;37139;-85
2023/09/07 05:52:52;;;;;;;24.08;21.38;;;17.20;99.90;;;;;;5017849;28;38545;-81
2023/09/07 05:55:19;;;;;;;23.67;21.17;;;17.20;99.90;;;;;;5017236;28;37489;-82
2023/09/07 05:57:45;;;;;;;29.92;22.63;;;17.20;99.90;;;;;;5030626;28;38398;-84
2023/09/07 06:00:12;;;;;;;25.95;20.90;;;17.30;99.90;;;;;;5022748;28;36673;-83
2023/09/07 06:02:39;;;;;;;25.25;22.65;;;17.30;99.90;;;;;;5021139;28;37598;-87
2023/09/07 06:05:05;;;;;;;24.73;22.02;;;17.40;99.90;;;;;;5021897;28;37259;-84
2023/09/07 06:07:31;;;;;;;27.42;24.40;;;17.50;99.90;;;;;;5023066;28;38390;-85
2023/09/07 06:09:58;;;;;;;26.20;23.45;;;17.60;99.90;;;;;;5022484;28;36475;-84
2023/09/07 06:12:25;;;;;;;27.00;23.88;;;17.60;99.90;;;;;;5025194;28;38220;-90
2023/09/07 06:14:51;;;;;;;26.27;22.58;;;17.70;99.90;;;;;;5026701;28;38606;-84
2023/09/07 06:17:17;;;;;;;28.23;22.77;;;17.70;99.90;;;;;;5020807;28;39603;-85
2023/09/07 06:19:44;;;;;;;24.90;22.23;;;17.70;99.90;;;;;;5021446;28;36710;-84
2023/09/07 06:22:10;;;;;;;27.33;24.17;;;17.80;99.90;;;;;;5021539;28;39470;-85
2023/09/07 06:24:36;;;;;;;26.50;23.80;;;17.90;99.90;;;;;;5021275;28;39141;-84
2023/09/07 06:27:03;;;;;;;23.55;21.00;;;18.00;99.90;;;;;;5026702;28;38064;-83
2023/09/07 06:29:29;;;;;;;24.40;21.88;;;18.00;99.90;;;;;;5020397;28;37283;-83
2023/09/07 06:31:55;;;;;;;26.75;22.30;;;18.10;99.90;;;;;;5026297;28;37608;-84
2023/09/07 06:34:21;;;;;;;24.40;20.25;;;18.20;99.90;;;;;;5023657;28;37930;-83
2023/09/07 06:36:47;;;;;;;23.33;20.70;;;18.30;99.90;;;;;;5024026;28;38173;-85
2023/09/07 06:39:13;;;;;;;23.23;20.50;;;18.30;99.90;;;;;;5025227;28;38537;-79
2023/09/07 06:41:39;;;;;;;23.88;21.38;;;18.40;99.90;;;;;;5024951;28;39325;-81
2023/09/07 06:44:05;;;;;;;24.95;20.50;;;18.50;99.90;;;;;;5017727;28;37158;-79
2023/09/07 06:46:32;;;;;;;22.27;19.88;;;18.60;99.90;;;;;;5022576;28;38631;-79
2023/09/07 06:48:58;;;;;;;22.02;19.10;;;18.70;99.90;;;;;;5025933;28;37335;-81
2023/09/07 06:51:24;;;;;;;24.77;20.45;;;18.70;99.90;;;;;;5026597;28;37854;-81
2023/09/07 06:53:50;;;;;;;22.17;19.27;;;18.80;99.90;;;;;;5027709;28;38414;-82
2023/09/07 06:56:16;;;;;;;21.38;18.98;;;18.90;99.90;;;;;;5027692;28;38114;-80
2023/09/07 06:58:42;;;;;;;23.10;18.67;;;19.00;99.90;;;;;;5028683;28;37228;-81
2023/09/07 07:01:08;;;;;;;21.60;18.05;;;19.10;99.90;;;;;;5025127;28;38621;-80
2023/09/07 07:03:34;;;;;;;18.88;16.95;;;19.10;99.90;;;;;;5037169;28;38612;-78
2023/09/07 07:06:01;;;;;;;26.13;18.52;;;19.20;99.90;;;;;;5044585;28;36957;-79
2023/09/07 07:08:27;;;;;;;19.95;17.60;;;19.30;99.90;;;;;;5025583;28;47264;-79
2023/09/07 07:10:53;;;;;;;18.35;16.45;;;19.40;99.90;;;;;;5027085;28;38866;-78
2023/09/07 07:13:19;;;;;;;18.92;16.02;;;19.50;99.90;;;;;;5023540;28;39432;-79
2023/09/07 07:15:45;;;;;;;20.00;16.77;;;19.50;99.90;;;;;;5019408;28;38373;-80
2023/09/07 07:18:11;;;;;;;15.27;13.68;;;19.60;99.90;;;;;;5031089;28;37363;-80
2023/09/07 07:20:39;;;;;;;18.08;14.77;;;19.80;99.90;;;;;;5033543;28;37622;-81
2023/09/07 07:23:08;;;;;;;17.45;15.15;;;19.80;99.90;;;;;;5037031;28;38865;-81
2023/09/07 07:25:34;;;;;;;19.65;14.05;;;19.90;99.90;;;;;;5030477;28;38021;-80
2023/09/07 07:28:05;;;;;;;17.05;14.32;;;20.00;99.90;;;;;;5031586;28;37936;-83
2023/09/07 07:30:35;;;;;;;14.80;13.10;;;20.20;99.90;;;;;;5029554;28;47269;-83
2023/09/07 07:33:06;;;;;;;16.25;13.20;;;20.30;99.90;;;;;;5025897;28;38399;-82
2023/09/07 07:35:35;;;;;;;16.65;12.90;;;20.40;99.90;;;;;;5026531;28;38257;-82
2023/09/07 07:38:07;;;;;;;15.25;12.60;;;20.50;99.90;;;;;;5023023;28;36391;-82
2023/09/07 07:40:34;;;;;;;13.18;11.75;;;20.60;99.90;;;;;;5015235;28;38855;-82
2023/09/07 07:43:00;;;;;;;16.00;12.20;;;20.70;99.90;;;;;;5020043;28;39101;-82
2023/09/07 07:45:26;;;;;;;12.55;10.93;;;20.80;99.90;;;;;;5026626;28;38676;-83
2023/09/07 07:47:54;;;;;;;15.18;11.45;;;20.80;99.90;;;;;;5027987;28;37979;-83
2023/09/07 07:50:20;;;;;;;14.00;10.82;;;20.90;99.90;;;;;;5022417;28;38144;-83
2023/09/07 07:52:46;;;;;;;20.95;11.15;;;21.00;99.90;;;;;;5026476;28;37398;-82
2023/09/07 07:55:13;;;;;;;15.60;10.27;;;21.20;99.90;;;;;;5025465;28;38626;-80
2023/09/07 07:57:39;;;;;;;11.73;10.02;;;21.30;99.90;;;;;;5024820;28;36506;-81
2023/09/07 08:00:06;;;;;;;12.05;9.57;;;21.40;99.90;;;;;;5028635;28;37576;-82
2023/09/07 08:02:32;;;;;;;13.55;9.32;;;21.60;99.90;;;;;;5042407;28;37552;-82
2023/09/07 08:04:58;;;;;;;13.70;9.85;;;21.80;99.90;;;;;;5027534;28;37873;-80
2023/09/07 08:07:26;;;;;;;11.27;8.35;;;21.90;99.90;;;;;;5026868;28;38064;-82
2023/09/07 08:09:52;;;;;;;14.32;8.93;;;22.00;99.90;;;;;;5028375;28;38630;-82
2023/09/07 08:12:18;;;;;;;11.02;8.50;;;22.10;99.90;;;;;;5028044;28;39351;-82
2023/09/07 08:14:45;;;;;;;13.20;8.50;;;22.20;99.90;;;;;;5028232;28;37782;-82
2023/09/07 08:17:11;;;;;;;10.68;8.23;;;22.40;99.90;;;;;;5027696;28;36122;-82
2023/09/07 08:19:38;;;;;;;11.25;7.30;;;22.60;99.90;;;;;;5027541;28;37723;-83
2023/09/07 08:22:06;;;;;;;13.75;7.82;;;22.70;99.90;;;;;;5020806;28;37523;-84
2023/09/07 08:24:32;;;;;;;8.70;7.43;;;22.90;99.90;;;;;;5026074;28;36838;-82
2023/09/07 08:26:59;;;;;;;8.27;6.93;;;23.10;99.90;;;;;;5029214;28;37146;-82
2023/09/07 08:29:26;;;;;;;8.55;6.45;;;23.20;97.80;;;;;;5027091;28;39841;-82
2023/09/07 08:31:54;;;;;;;8.02;6.78;;;23.50;99.90;;;;;;5028272;28;37504;-83
2023/09/07 08:34:21;;;;;;;7.65;6.60;;;23.70;93.80;;;;;;5022740;28;37285;-83
2023/09/07 08:36:59;;;;;;;8.35;6.95;;;23.90;78.30;;;;;;5005255;28;37044;-85
2023/09/07 08:39:28;;;;;;;15.95;6.78;;;24.10;79.90;;;;;;5011373;28;40699;-83
2023/09/07 08:41:58;;;;;;;8.70;6.75;;;24.30;84.80;;;;;;5022251;28;38569;-82
2023/09/07 08:44:25;;;;;;;7.85;6.90;;;24.40;76.60;;;;;;5019193;28;37821;-82
2023/09/07 08:46:52;;;;;;;8.75;6.72;;;24.50;71.60;;;;;;5017938;28;37326;-82
2023/09/07 08:49:19;;;;;;;8.65;6.70;;;24.60;78.90;;;;;;5009101;28;39132;-83
2023/09/07 08:51:45;;;;;;;12.90;6.97;;;24.60;78.80;;;;;;5015600;28;37326;-82
2023/09/07 08:54:12;;;;;;;7.38;6.25;;;24.80;93.00;;;;;;5009409;28;36913;-83
2023/09/07 08:56:38;;;;;;;7.55;5.88;;;24.80;58.90;;;;;;5024565;28;37538;-83
2023/09/07 08:59:04;;;;;;;8.15;6.20;;;24.80;67.80;;;;;;5021478;28;39282;-83
2023/09/07 09:01:31;;;;;;;6.35;5.22;;;24.80;58.50;;;;;;5022091;28;37244;-83
2023/09/07 09:03:58;;;;;;;8.05;5.45;;;25.10;71.60;;;;;;5031046;28;38494;-83
2023/09/07 09:06:25;;;;;;;9.85;6.32;;;25.20;76.50;;;;;;5029742;28;36645;-83
2023/09/07 09:08:54;;;;;;;7.10;5.65;;;25.20;30.30;;;;;;5037466;28;37994;-84
2023/09/07 09:11:22;;;;;;;12.95;5.97;;;25.30;78.80;;;;;;5053351;28;37518;-83
2023/09/07 09:13:53;;;;;;;6.43;5.35;;;25.30;35.20;;;;;;5025984;28;37055;-83
2023/09/07 09:16:21;;;;;;;6.75;5.20;;;25.30;43.70;;;;;;5029471;28;37136;-83
2023/09/07 09:18:55;;;;;;;5.60;4.63;;;25.40;59.80;;;;;;5029707;28;37587;-83
2023/09/07 09:21:26;;;;;;;6.82;4.72;;;25.50;52.60;;;;;;5024976;28;38696;-82
2023/09/07 09:23:57;;;;;;;7.73;5.43;;;25.80;30.60;;;;;;5027028;28;36949;-82
2023/09/07 09:26:23;;;;;;;7.90;5.80;;;26.20;53.40;;;;;;5043383;28;36130;-82
2023/09/07 09:28:53;;;;;;;7.20;5.25;;;26.00;8.50;;;;;;5024814;28;38101;-82
2023/09/07 09:31:19;;;;;;;10.38;5.60;;;26.00;16.50;;;;;;5017796;28;38467;-82
2023/09/07 09:33:51;;;;;;;8.07;5.93;;;26.20;25.10;;;;;;5025407;28;37440;-82
2023/09/07 09:36:17;;;;;;;;;;;26.20;18.20;;;;;;5026300;28;37343;-82
2023/09/07 09:38:52;;;;;;;5.65;5.15;;;26.40;23.90;;;;;;5021783;28;38107;-82
2023/09/07 09:41:20;;;;;;;6.03;5.13;;;26.50;26.00;;;;;;5024540;28;38396;-82
2023/09/07 09:43:51;;;;;;;7.82;5.13;;;26.60;6.10;;;;;;5020321;28;36869;-82
2023/09/07 09:46:20;;;;;;;7.40;5.82;;;26.80;53.30;;;;;;5034317;28;37502;-82
2023/09/07 09:48:48;;;;;;;7.30;5.28;;;27.00;17.70;;;;;;5021600;28;37608;-82
2023/09/07 09:51:21;;;;;;;8.75;5.40;;;27.10;32.30;;;;;;5023767;28;37199;-82
2023/09/07 09:53:49;;;;;;;9.45;5.47;;;27.10;1.00;;;;;;5026942;28;37535;-82
2023/09/07 09:56:16;;;;;;;8.35;4.95;;;27.10;1.00;;;;;;5027918;28;36744;-82
2023/09/07 09:58:43;;;;;;;6.57;4.95;;;27.10;25.50;;;;;;5025999;28;39640;-83
2023/09/07 10:01:10;;;;;;;10.65;5.95;;;27.20;44.00;;;;;;5025650;28;37540;-83
2023/09/07 10:03:46;;;;;;;10.63;5.93;;;27.30;1.00;;;;;;5023593;28;37505;-83
2023/09/07 10:06:24;;;;;;;7.53;5.28;;;27.30;1.20;;;;;;5019855;28;37020;-82
2023/09/07 10:08:54;;;;;;;6.45;5.35;;;27.30;1.10;;;;;;5017434;28;37690;-82
2023/09/07 10:11:31;;;;;;;7.40;5.15;;;27.40;1.00;;;;;;5023714;28;37526;-82
2023/09/07 10:13:59;;;;;;;7.72;5.40;;;27.30;31.50;;;;;;5027252;28;37156;-82
2023/09/07 10:16:27;;;;;;;8.48;6.18;;;27.40;16.20;;;;;;5026523;28;36308;-83
2023/09/07 10:18:53;;;;;;;9.20;5.47;;;27.40;1.00;;;;;;5014164;28;37554;-83
2023/09/07 10:21:19;;;;;;;4.78;4.38;;;27.40;1.00;;;;;;5026631;28;37437;-83
2023/09/07 10:23:45;;;;;;;5.57;4.72;;;27.60;14.40;;;;;;5024961;28;39111;-82
2023/09/07 10:26:14;;;;;;;6.63;4.75;;;27.70;1.00;;;;;;5019845;28;36564;-82
2023/09/07 10:28:41;;;;;;;8.35;5.00;;;27.80;1.00;;;;;;5029216;28;38197;-82
2023/09/07 10:31:17;;;;;;;8.65;4.53;;;28.00;4.40;;;;;;5026989;28;38688;-82
2023/09/07 10:33:48;;;;;;;6.15;4.57;;;27.90;14.80;;;;;;5022604;28;37721;-82
2023/09/07 10:36:26;;;;;;;7.30;3.92;;;28.10;1.00;;;;;;5024190;28;36600;-83
2023/09/07 10:38:53;;;;;;;8.48;4.93;;;28.30;1.00;;;;;;5028997;28;39881;-84
2023/09/07 10:41:20;;;;;;;6.22;4.65;;;28.40;1.00;;;;;;5025828;28;38193;-82
2023/09/07 10:43:50;;;;;;;4.97;4.40;;;28.40;1.00;;;;;;5026954;28;37140;-82
2023/09/07 10:46:20;;;;;;;4.90;4.30;;;28.30;1.00;;;;;;5026253;28;36214;-82
2023/09/07 10:48:52;;;;;;;6.60;4.25;;;28.40;1.00;;;;;;5039614;28;39400;-82
2023/09/07 10:51:21;;;;;;;5.97;4.15;;;28.50;1.00;;;;;;5025912;28;38007;-82
2023/09/07 10:53:47;;;;;;;8.55;4.45;;;28.80;1.00;;;;;;5025312;28;37622;-83
2023/09/07 10:56:13;;;;;;;6.57;4.13;;;29.00;1.00;;;;;;5025096;28;36473;-84
2023/09/07 10:58:41;;;;;;;5.63;3.72;;;28.90;1.00;;;;;;5028430;28;40857;-83
2023/09/07 11:01:09;;;;;;;5.82;3.67;;;29.00;1.00;;;;;;5028047;28;38105;-83
2023/09/07 11:03:37;;;;;;;6.32;3.92;;;29.10;1.00;;;;;;5028754;28;37391;-82
2023/09/07 11:06:19;;;;;;;5.05;3.53;;;29.20;1.00;;;;;;5027132;28;37281;-83
2023/09/07 11:08:46;;;;;;;4.78;3.75;;;29.40;1.00;;;;;;5028931;28;40479;-83
2023/09/07 11:11:13;;;;;;;6.15;3.65;;;29.40;1.00;;;;;;5026759;28;39225;-83
2023/09/07 11:13:39;;;;;;;6.45;3.13;;;29.50;1.00;;;;;;5028647;28;37831;-83
2023/09/07 11:16:09;;;;;;;8.05;3.50;;;29.20;1.00;;;;;;5019582;28;36430;-84
2023/09/07 11:18:36;;;;;;;6.40;3.58;;;29.00;1.00;;;;;;5020611;28;39945;-83
2023/09/07 11:21:07;;;;;;;4.78;3.15;;;28.80;1.00;;;;;;5026581;28;38541;-82
2023/09/07 11:23:39;;;;;;;4.37;3.63;;;28.90;1.00;;;;;;5024290;28;38400;-82
2023/09/07 11:26:08;;;;;;;3.05;2.65;;;29.20;1.00;;;;;;5022833;28;36598;-84
2023/09/07 11:28:34;;;;;;;6.82;3.20;;;29.00;1.00;;;;;;5033303;28;37871;-83
2023/09/07 11:31:00;;;;;;;2.85;2.65;;;29.10;1.00;;;;;;5017362;28;38217;-82
2023/09/07 11:33:31;;;;;;;4.93;3.38;;;29.30;1.00;;;;;;5037838;28;47646;-82
2023/09/07 11:35:57;;;;;;;11.90;3.55;;;29.20;1.00;;;;;;5027831;28;36610;-82
2023/09/07 11:38:28;;;;;;;4.97;3.00;;;29.10;1.00;;;;;;5028415;28;39597;-80
2023/09/07 11:40:54;;;;;;;5.50;3.50;;;29.20;1.00;;;;;;5027264;28;37457;-79
2023/09/07 11:43:20;;;;;;;7.43;2.78;;;29.30;1.00;;;;;;5026857;28;37782;-81
2023/09/07 11:45:47;;;;;;;4.00;2.95;;;29.10;1.00;;;;;;5021920;28;37188;-82
2023/09/07 11:48:13;;;;;;;8.38;3.20;;;29.00;1.00;;;;;;5025272;28;39468;-82
2023/09/07 11:50:40;;;;;;;6.15;3.80;;;29.00;1.00;;;;;;5023102;28;38172;-81
2023/09/07 11:53:07;;;;;;;6.88;3.47;;;29.00;1.00;;;;;;5025762;28;38130;-80
2023/09/07 11:55:34;;;;;;;6.03;3.20;;;29.10;1.00;;;;;;5027737;28;36958;-80
2023/09/07 11:58:01;;;;;;;4.25;3.40;;;29.10;1.00;;;;;;5024731;28;38787;-79
2023/09/07 12:00:29;;;;;;;4.22;3.20;;;29.10;1.00;;;;;;5019854;28;37220;-79
2023/09/07 12:02:55;;;;;;;8.82;3.78;;;29.20;1.00;;;;;;5024512;28;39047;-80
2023/09/07 12:05:21;;;;;;;6.28;3.08;;;29.20;1.00;;;;;;5020666;28;35974;-79
2023/09/07 12:07:47;;;;;;;7.45;3.80;;;29.30;1.00;;;;;;5023442;28;38176;-79
2023/09/07 12:10:13;;;;;;;3.35;2.90;;;29.30;1.00;;;;;;5024029;28;38505;-80
2023/09/07 12:12:41;;;;;;;3.22;2.65;;;29.50;1.00;;;;;;5020939;28;38117;-83
2023/09/07 12:15:08;;;;;;;5.47;3.35;;;29.70;1.00;;;;;;5019455;28;37392;-79
2023/09/07 12:17:34;;;;;;;5.63;3.40;;;30.00;1.00;;;;;;5024522;28;38011;-79
2023/09/07 12:20:01;;;;;;;6.00;3.30;;;30.20;1.00;;;;;;5024941;28;37739;-79
2023/09/07 12:22:27;;;;;;;5.68;3.20;;;30.10;99.90;;;;;;5029671;28;36910;-79
2023/09/07 12:24:53;;;;;;;5.78;2.97;;;30.20;99.90;;;;;;5029680;28;37254;-79
2023/09/07 12:27:20;;;;;;;5.78;3.15;;;30.00;1.00;;;;;;5027297;28;39207;-81
2023/09/07 12:29:46;;;;;;;4.90;3.20;;;29.90;56.60;;;;;;5023367;28;37319;-80
2023/09/07 12:32:12;;;;;;;6.10;3.42;;;29.80;1.00;;;;;;5023801;28;38449;-79
2023/09/07 12:34:39;;;;;;;6.53;3.28;;;29.60;99.90;;;;;;5037973;28;37453;-79
2023/09/07 12:37:05;;;;;;;3.88;2.92;;;29.70;1.00;;;;;;5017818;28;38122;-82
2023/09/07 12:39:32;;;;;;;3.20;2.90;;;29.90;1.00;;;;;;5023058;28;38293;-79
2023/09/07 12:41:58;;;;;;;3.45;2.80;;;30.10;99.90;;;;;;5033753;28;37024;-81